sensor_id;sensor_type;location;lat;lon;timestamp;P1;durP1;ratioP1;P2;durP2;ratioP2
12906;SDS011;6521;50.498;8.474;2023-02-17T00:02:29;31.27;;;21.33;;
12906;SDS011;6521;50.498;8.474;2023-02-17T00:05:00;31.97;;;21.37;;
12906;SDS011;6521;50.498;8.474;2023-02-17T00:07:33;39.67;;;24.43;;
12906;SDS011;6521;50.498;8.474;2023-02-17T00:10:05;28.93;;;20.40;;
12906;SDS011;6521;50.498;8.474;2023-02-17T00:12:36;29.47;;;19.83;;
12906;SDS011;6521;50.498;8.474;2023-02-17T00:15:07;33.93;;;20.97;;
12906;SDS011;6521;50.498;8.474;2023-02-17T00:17:38;32.87;;;20.00;;
12906;SDS011;6521;50.498;8.474;2023-02-17T00:20:09;26.33;;;19.57;;
12906;SDS011;6521;50.498;8.474;2023-02-17T00:22:40;33.60;;;19.67;;
12906;SDS011;6521;50.498;8.474;2023-02-17T00:25:11;32.47;;;19.63;;
12906;SDS011;6521;50.498;8.474;2023-02-17T00:27:41;34.63;;;20.60;;
12906;SDS011;6521;50.498;8.474;2023-02-17T00:30:12;34.13;;;20.37;;
12906;SDS011;6521;50.498;8.474;2023-02-17T00:32:43;30.57;;;20.33;;
12906;SDS011;6521;50.498;8.474;2023-02-17T00:35:14;28.40;;;19.43;;
12906;SDS011;6521;50.498;8.474;2023-02-17T00:37:45;27.07;;;19.63;;
12906;SDS011;6521;50.498;8.474;2023-02-17T00:40:16;31.40;;;19.60;;
12906;SDS011;6521;50.498;8.474;2023-02-17T00:42:47;27.13;;;19.30;;
12906;SDS011;6521;50.498;8.474;2023-02-17T00:45:18;30.47;;;19.63;;
12906;SDS011;6521;50.498;8.474;2023-02-17T00:47:49;27.67;;;19.93;;
12906;SDS011;6521;50.498;8.474;2023-02-17T00:50:20;34.40;;;19.53;;
12906;SDS011;6521;50.498;8.474;2023-02-17T00:52:51;26.80;;;20.03;;
12906;SDS011;6521;50.498;8.474;2023-02-17T00:55:22;32.10;;;20.47;;
12906;SDS011;6521;50.498;8.474;2023-02-17T00:57:52;32.33;;;20.40;;
12906;SDS011;6521;50.498;8.474;2023-02-17T01:00:23;28.60;;;17.90;;
12906;SDS011;6521;50.498;8.474;2023-02-17T01:02:54;31.47;;;19.37;;
12906;SDS011;6521;50.498;8.474;2023-02-17T01:05:26;31.63;;;20.57;;
12906;SDS011;6521;50.498;8.474;2023-02-17T01:07:57;27.73;;;19.30;;
12906;SDS011;6521;50.498;8.474;2023-02-17T01:10:28;29.60;;;19.03;;
12906;SDS011;6521;50.498;8.474;2023-02-17T01:12:59;24.73;;;18.77;;
12906;SDS011;6521;50.498;8.474;2023-02-17T01:15:30;27.77;;;18.67;;
12906;SDS011;6521;50.498;8.474;2023-02-17T01:18:02;27.70;;;18.20;;
12906;SDS011;6521;50.498;8.474;2023-02-17T01:20:34;27.30;;;18.43;;
12906;SDS011;6521;50.498;8.474;2023-02-17T01:23:06;23.83;;;17.67;;
12906;SDS011;6521;50.498;8.474;2023-02-17T01:25:38;25.30;;;18.63;;
12906;SDS011;6521;50.498;8.474;2023-02-17T01:28:15;25.40;;;17.77;;
12906;SDS011;6521;50.498;8.474;2023-02-17T01:30:50;27.03;;;18.13;;
12906;SDS011;6521;50.498;8.474;2023-02-17T01:33:20;27.07;;;18.83;;
12906;SDS011;6521;50.498;8.474;2023-02-17T01:35:51;22.03;;;16.73;;
12906;SDS011;6521;50.498;8.474;2023-02-17T01:38:22;24.87;;;19.53;;
12906;SDS011;6521;50.498;8.474;2023-02-17T01:40:53;26.17;;;17.37;;
12906;SDS011;6521;50.498;8.474;2023-02-17T01:43:25;22.83;;;17.93;;
12906;SDS011;6521;50.498;8.474;2023-02-17T01:45:56;29.23;;;17.47;;
12906;SDS011;6521;50.498;8.474;2023-02-17T01:48:33;24.13;;;16.47;;
12906;SDS011;6521;50.498;8.474;2023-02-17T01:53:49;20.67;;;16.60;;
12906;SDS011;6521;50.498;8.474;2023-02-17T01:56:36;22.53;;;16.43;;
12906;SDS011;6521;50.498;8.474;2023-02-17T01:59:16;25.23;;;16.27;;
12906;SDS011;6521;50.498;8.474;2023-02-17T02:01:53;22.53;;;15.87;;
12906;SDS011;6521;50.498;8.474;2023-02-17T02:04:28;20.13;;;14.57;;
12906;SDS011;6521;50.498;8.474;2023-02-17T02:07:01;23.17;;;15.73;;
12906;SDS011;6521;50.498;8.474;2023-02-17T02:09:37;21.63;;;15.60;;
12906;SDS011;6521;50.498;8.474;2023-02-17T02:12:16;22.27;;;16.07;;
12906;SDS011;6521;50.498;8.474;2023-02-17T02:14:49;20.27;;;14.90;;
12906;SDS011;6521;50.498;8.474;2023-02-17T02:17:31;25.63;;;16.03;;
12906;SDS011;6521;50.498;8.474;2023-02-17T02:35:44;19.43;;;14.17;;
12906;SDS011;6521;50.498;8.474;2023-02-17T02:38:17;18.00;;;13.83;;
12906;SDS011;6521;50.498;8.474;2023-02-17T02:41:02;17.47;;;13.33;;
12906;SDS011;6521;50.498;8.474;2023-02-17T02:43:38;19.67;;;14.27;;
12906;SDS011;6521;50.498;8.474;2023-02-17T02:46:09;19.40;;;13.47;;
12906;SDS011;6521;50.498;8.474;2023-02-17T02:48:40;22.57;;;13.30;;
12906;SDS011;6521;50.498;8.474;2023-02-17T02:54:14;19.83;;;14.03;;
12906;SDS011;6521;50.498;8.474;2023-02-17T03:02:54;21.27;;;13.70;;
12906;SDS011;6521;50.498;8.474;2023-02-17T03:08:27;16.57;;;12.83;;
12906;SDS011;6521;50.498;8.474;2023-02-17T03:11:29;16.17;;;12.20;;
12906;SDS011;6521;50.498;8.474;2023-02-17T03:14:09;15.47;;;12.30;;
12906;SDS011;6521;50.498;8.474;2023-02-17T03:16:43;18.53;;;13.23;;
12906;SDS011;6521;50.498;8.474;2023-02-17T03:19:14;15.63;;;12.43;;
12906;SDS011;6521;50.498;8.474;2023-02-17T03:24:27;18.53;;;11.90;;
12906;SDS011;6521;50.498;8.474;2023-02-17T03:26:58;13.20;;;11.10;;
12906;SDS011;6521;50.498;8.474;2023-02-17T03:29:29;14.13;;;12.43;;
12906;SDS011;6521;50.498;8.474;2023-02-17T03:31:59;14.40;;;11.73;;
12906;SDS011;6521;50.498;8.474;2023-02-17T03:34:30;14.87;;;11.77;;
12906;SDS011;6521;50.498;8.474;2023-02-17T03:37:01;16.60;;;11.53;;
12906;SDS011;6521;50.498;8.474;2023-02-17T03:39:32;15.67;;;11.47;;
12906;SDS011;6521;50.498;8.474;2023-02-17T03:42:03;17.80;;;11.10;;
12906;SDS011;6521;50.498;8.474;2023-02-17T03:44:34;14.33;;;11.20;;
12906;SDS011;6521;50.498;8.474;2023-02-17T03:47:05;16.50;;;11.33;;
12906;SDS011;6521;50.498;8.474;2023-02-17T03:49:36;15.90;;;11.57;;
12906;SDS011;6521;50.498;8.474;2023-02-17T03:52:10;17.73;;;10.43;;
12906;SDS011;6521;50.498;8.474;2023-02-17T03:54:41;13.47;;;10.17;;
12906;SDS011;6521;50.498;8.474;2023-02-17T03:57:11;14.40;;;11.13;;
12906;SDS011;6521;50.498;8.474;2023-02-17T03:59:42;13.10;;;10.93;;
12906;SDS011;6521;50.498;8.474;2023-02-17T04:02:13;13.27;;;10.57;;
12906;SDS011;6521;50.498;8.474;2023-02-17T04:04:44;16.70;;;11.00;;
12906;SDS011;6521;50.498;8.474;2023-02-17T04:07:14;14.10;;;11.70;;
12906;SDS011;6521;50.498;8.474;2023-02-17T04:09:45;17.70;;;11.47;;
12906;SDS011;6521;50.498;8.474;2023-02-17T04:12:16;16.27;;;10.63;;
12906;SDS011;6521;50.498;8.474;2023-02-17T04:14:46;15.33;;;11.43;;
12906;SDS011;6521;50.498;8.474;2023-02-17T04:17:17;15.93;;;11.73;;
12906;SDS011;6521;50.498;8.474;2023-02-17T04:19:48;13.20;;;10.47;;
12906;SDS011;6521;50.498;8.474;2023-02-17T04:22:18;16.83;;;10.60;;
12906;SDS011;6521;50.498;8.474;2023-02-17T04:24:50;16.60;;;10.57;;
12906;SDS011;6521;50.498;8.474;2023-02-17T04:27:21;12.10;;;10.03;;
12906;SDS011;6521;50.498;8.474;2023-02-17T04:29:51;16.70;;;11.27;;
12906;SDS011;6521;50.498;8.474;2023-02-17T04:32:22;12.10;;;10.20;;
12906;SDS011;6521;50.498;8.474;2023-02-17T04:34:53;14.87;;;10.87;;
12906;SDS011;6521;50.498;8.474;2023-02-17T04:37:23;14.23;;;10.20;;
12906;SDS011;6521;50.498;8.474;2023-02-17T04:39:54;10.47;;;9.07;;
12906;SDS011;6521;50.498;8.474;2023-02-17T04:42:25;12.93;;;9.53;;
12906;SDS011;6521;50.498;8.474;2023-02-17T04:44:56;10.13;;;8.97;;
12906;SDS011;6521;50.498;8.474;2023-02-17T04:47:26;14.47;;;9.23;;
12906;SDS011;6521;50.498;8.474;2023-02-17T04:49:58;11.90;;;8.83;;
12906;SDS011;6521;50.498;8.474;2023-02-17T04:52:28;10.90;;;8.13;;
12906;SDS011;6521;50.498;8.474;2023-02-17T04:54:59;11.50;;;8.07;;
12906;SDS011;6521;50.498;8.474;2023-02-17T04:57:30;9.67;;;8.50;;
12906;SDS011;6521;50.498;8.474;2023-02-17T05:00:02;9.83;;;8.43;;
12906;SDS011;6521;50.498;8.474;2023-02-17T05:02:34;12.97;;;8.93;;
12906;SDS011;6521;50.498;8.474;2023-02-17T05:05:05;9.70;;;8.20;;
12906;SDS011;6521;50.498;8.474;2023-02-17T05:07:36;8.47;;;7.60;;
12906;SDS011;6521;50.498;8.474;2023-02-17T05:10:07;10.97;;;7.33;;
12906;SDS011;6521;50.498;8.474;2023-02-17T05:12:38;9.07;;;7.63;;
12906;SDS011;6521;50.498;8.474;2023-02-17T05:15:10;9.87;;;7.63;;
12906;SDS011;6521;50.498;8.474;2023-02-17T05:17:41;9.07;;;6.70;;
12906;SDS011;6521;50.498;8.474;2023-02-17T05:20:12;9.50;;;6.63;;
12906;SDS011;6521;50.498;8.474;2023-02-17T05:22:43;8.90;;;6.67;;
12906;SDS011;6521;50.498;8.474;2023-02-17T05:25:17;7.53;;;6.83;;
12906;SDS011;6521;50.498;8.474;2023-02-17T05:27:47;7.20;;;6.23;;
12906;SDS011;6521;50.498;8.474;2023-02-17T05:30:18;6.93;;;6.23;;
12906;SDS011;6521;50.498;8.474;2023-02-17T05:32:49;7.37;;;5.93;;
12906;SDS011;6521;50.498;8.474;2023-02-17T05:35:20;7.50;;;6.80;;
12906;SDS011;6521;50.498;8.474;2023-02-17T05:37:51;6.90;;;5.67;;
12906;SDS011;6521;50.498;8.474;2023-02-17T05:40:21;6.13;;;5.50;;
12906;SDS011;6521;50.498;8.474;2023-02-17T05:42:52;6.63;;;5.13;;
12906;SDS011;6521;50.498;8.474;2023-02-17T05:45:24;7.50;;;5.77;;
12906;SDS011;6521;50.498;8.474;2023-02-17T05:47:55;6.23;;;5.63;;
12906;SDS011;6521;50.498;8.474;2023-02-17T05:50:25;6.10;;;5.50;;
12906;SDS011;6521;50.498;8.474;2023-02-17T05:52:56;8.43;;;5.17;;
12906;SDS011;6521;50.498;8.474;2023-02-17T05:55:27;5.73;;;4.80;;
12906;SDS011;6521;50.498;8.474;2023-02-17T05:57:58;5.60;;;5.00;;
12906;SDS011;6521;50.498;8.474;2023-02-17T06:00:29;6.37;;;4.93;;
12906;SDS011;6521;50.498;8.474;2023-02-17T06:03:00;5.50;;;5.00;;
12906;SDS011;6521;50.498;8.474;2023-02-17T06:05:30;5.60;;;5.10;;
12906;SDS011;6521;50.498;8.474;2023-02-17T06:08:01;5.80;;;5.20;;
12906;SDS011;6521;50.498;8.474;2023-02-17T06:10:32;6.67;;;5.23;;
12906;SDS011;6521;50.498;8.474;2023-02-17T06:13:03;5.97;;;4.90;;
12906;SDS011;6521;50.498;8.474;2023-02-17T06:15:33;5.60;;;5.00;;
12906;SDS011;6521;50.498;8.474;2023-02-17T06:18:04;7.27;;;5.50;;
12906;SDS011;6521;50.498;8.474;2023-02-17T06:20:35;5.97;;;5.20;;
12906;SDS011;6521;50.498;8.474;2023-02-17T06:23:06;7.83;;;5.93;;
12906;SDS011;6521;50.498;8.474;2023-02-17T06:25:36;6.07;;;5.47;;
12906;SDS011;6521;50.498;8.474;2023-02-17T06:28:07;5.70;;;5.10;;
12906;SDS011;6521;50.498;8.474;2023-02-17T06:30:38;8.97;;;4.87;;
12906;SDS011;6521;50.498;8.474;2023-02-17T06:33:09;5.80;;;5.03;;
12906;SDS011;6521;50.498;8.474;2023-02-17T06:35:39;5.93;;;4.63;;
12906;SDS011;6521;50.498;8.474;2023-02-17T06:38:10;5.53;;;5.03;;
12906;SDS011;6521;50.498;8.474;2023-02-17T06:40:41;12.20;;;5.93;;
12906;SDS011;6521;50.498;8.474;2023-02-17T06:43:12;6.30;;;5.53;;
12906;SDS011;6521;50.498;8.474;2023-02-17T06:45:42;5.67;;;5.17;;
12906;SDS011;6521;50.498;8.474;2023-02-17T06:48:13;5.93;;;5.20;;
12906;SDS011;6521;50.498;8.474;2023-02-17T06:50:44;7.63;;;5.70;;
12906;SDS011;6521;50.498;8.474;2023-02-17T06:53:15;6.13;;;5.53;;
12906;SDS011;6521;50.498;8.474;2023-02-17T06:55:46;7.63;;;5.50;;
12906;SDS011;6521;50.498;8.474;2023-02-17T06:58:17;6.30;;;5.53;;
12906;SDS011;6521;50.498;8.474;2023-02-17T07:00:48;6.80;;;5.90;;
12906;SDS011;6521;50.498;8.474;2023-02-17T07:03:19;6.70;;;5.90;;
12906;SDS011;6521;50.498;8.474;2023-02-17T07:05:49;6.70;;;5.80;;
12906;SDS011;6521;50.498;8.474;2023-02-17T07:08:20;6.37;;;5.67;;
12906;SDS011;6521;50.498;8.474;2023-02-17T07:10:51;8.60;;;6.30;;
12906;SDS011;6521;50.498;8.474;2023-02-17T07:13:22;7.63;;;6.67;;
12906;SDS011;6521;50.498;8.474;2023-02-17T07:15:52;7.53;;;6.03;;
12906;SDS011;6521;50.498;8.474;2023-02-17T07:18:23;8.50;;;6.00;;
12906;SDS011;6521;50.498;8.474;2023-02-17T07:20:54;8.07;;;6.77;;
12906;SDS011;6521;50.498;8.474;2023-02-17T07:23:25;11.00;;;6.13;;
12906;SDS011;6521;50.498;8.474;2023-02-17T07:26:00;9.50;;;6.60;;
12906;SDS011;6521;50.498;8.474;2023-02-17T07:28:34;8.50;;;6.50;;
12906;SDS011;6521;50.498;8.474;2023-02-17T07:33:36;7.63;;;6.10;;
12906;SDS011;6521;50.498;8.474;2023-02-17T07:36:12;8.10;;;6.03;;
12906;SDS011;6521;50.498;8.474;2023-02-17T07:38:44;7.10;;;6.33;;
12906;SDS011;6521;50.498;8.474;2023-02-17T07:41:16;9.23;;;6.83;;
12906;SDS011;6521;50.498;8.474;2023-02-17T07:43:52;7.80;;;6.60;;
12906;SDS011;6521;50.498;8.474;2023-02-17T07:46:26;8.30;;;6.67;;
12906;SDS011;6521;50.498;8.474;2023-02-17T07:48:57;7.90;;;6.70;;
12906;SDS011;6521;50.498;8.474;2023-02-17T07:51:28;13.90;;;7.07;;
12906;SDS011;6521;50.498;8.474;2023-02-17T07:53:59;7.90;;;6.83;;
12906;SDS011;6521;50.498;8.474;2023-02-17T07:56:30;7.93;;;7.10;;
12906;SDS011;6521;50.498;8.474;2023-02-17T07:59:03;9.40;;;7.43;;
12906;SDS011;6521;50.498;8.474;2023-02-17T08:01:37;10.87;;;7.10;;
12906;SDS011;6521;50.498;8.474;2023-02-17T08:04:08;9.07;;;7.07;;
12906;SDS011;6521;50.498;8.474;2023-02-17T08:06:39;9.53;;;6.97;;
12906;SDS011;6521;50.498;8.474;2023-02-17T08:09:10;10.17;;;6.67;;
12906;SDS011;6521;50.498;8.474;2023-02-17T08:12:20;10.30;;;7.80;;
12906;SDS011;6521;50.498;8.474;2023-02-17T08:15:09;10.97;;;8.20;;
12906;SDS011;6521;50.498;8.474;2023-02-17T08:17:41;11.33;;;8.00;;
12906;SDS011;6521;50.498;8.474;2023-02-17T08:20:13;9.37;;;7.17;;
12906;SDS011;6521;50.498;8.474;2023-02-17T08:22:45;10.73;;;8.03;;
12906;SDS011;6521;50.498;8.474;2023-02-17T08:25:16;10.83;;;8.37;;
12906;SDS011;6521;50.498;8.474;2023-02-17T08:27:46;14.63;;;7.93;;
12906;SDS011;6521;50.498;8.474;2023-02-17T08:30:17;9.13;;;7.50;;
12906;SDS011;6521;50.498;8.474;2023-02-17T08:32:48;11.30;;;7.70;;
12906;SDS011;6521;50.498;8.474;2023-02-17T08:35:19;10.23;;;8.43;;
12906;SDS011;6521;50.498;8.474;2023-02-17T08:37:52;16.53;;;10.87;;
12906;SDS011;6521;50.498;8.474;2023-02-17T08:40:23;27.60;;;12.50;;
12906;SDS011;6521;50.498;8.474;2023-02-17T08:42:54;11.73;;;8.43;;
12906;SDS011;6521;50.498;8.474;2023-02-17T08:45:25;11.63;;;8.57;;
12906;SDS011;6521;50.498;8.474;2023-02-17T08:47:56;11.20;;;8.97;;
12906;SDS011;6521;50.498;8.474;2023-02-17T08:50:27;12.23;;;9.63;;
12906;SDS011;6521;50.498;8.474;2023-02-17T08:52:57;12.20;;;8.37;;
12906;SDS011;6521;50.498;8.474;2023-02-17T08:55:28;13.03;;;8.67;;
12906;SDS011;6521;50.498;8.474;2023-02-17T08:57:59;13.17;;;9.33;;
12906;SDS011;6521;50.498;8.474;2023-02-17T09:00:31;16.03;;;9.60;;
12906;SDS011;6521;50.498;8.474;2023-02-17T09:03:02;11.87;;;9.53;;
12906;SDS011;6521;50.498;8.474;2023-02-17T09:05:33;11.30;;;9.10;;
12906;SDS011;6521;50.498;8.474;2023-02-17T09:08:05;11.00;;;8.80;;
12906;SDS011;6521;50.498;8.474;2023-02-17T09:10:36;12.10;;;9.37;;
12906;SDS011;6521;50.498;8.474;2023-02-17T09:13:07;13.43;;;9.70;;
12906;SDS011;6521;50.498;8.474;2023-02-17T09:15:40;11.63;;;8.93;;
12906;SDS011;6521;50.498;8.474;2023-02-17T09:18:11;18.67;;;9.50;;
12906;SDS011;6521;50.498;8.474;2023-02-17T09:20:42;12.03;;;9.60;;
12906;SDS011;6521;50.498;8.474;2023-02-17T09:23:13;10.13;;;8.20;;
12906;SDS011;6521;50.498;8.474;2023-02-17T09:25:44;12.27;;;8.47;;
12906;SDS011;6521;50.498;8.474;2023-02-17T09:28:15;12.57;;;8.60;;
12906;SDS011;6521;50.498;8.474;2023-02-17T09:30:46;9.20;;;8.20;;
12906;SDS011;6521;50.498;8.474;2023-02-17T09:33:17;9.50;;;8.27;;
12906;SDS011;6521;50.498;8.474;2023-02-17T09:35:48;8.73;;;7.53;;
12906;SDS011;6521;50.498;8.474;2023-02-17T09:38:20;11.93;;;8.17;;
12906;SDS011;6521;50.498;8.474;2023-02-17T09:40:50;8.70;;;7.40;;
12906;SDS011;6521;50.498;8.474;2023-02-17T09:43:24;9.03;;;7.77;;
12906;SDS011;6521;50.498;8.474;2023-02-17T09:45:59;13.83;;;7.47;;
12906;SDS011;6521;50.498;8.474;2023-02-17T09:48:35;9.37;;;7.17;;
12906;SDS011;6521;50.498;8.474;2023-02-17T09:51:31;13.90;;;7.87;;
12906;SDS011;6521;50.498;8.474;2023-02-17T09:54:07;8.83;;;6.97;;
12906;SDS011;6521;50.498;8.474;2023-02-17T09:56:45;9.00;;;6.70;;
12906;SDS011;6521;50.498;8.474;2023-02-17T09:59:21;8.27;;;7.40;;
12906;SDS011;6521;50.498;8.474;2023-02-17T10:01:57;9.97;;;7.30;;
12906;SDS011;6521;50.498;8.474;2023-02-17T10:04:32;8.23;;;6.73;;
12906;SDS011;6521;50.498;8.474;2023-02-17T10:07:13;7.63;;;6.80;;
12906;SDS011;6521;50.498;8.474;2023-02-17T10:09:50;9.67;;;7.20;;
12906;SDS011;6521;50.498;8.474;2023-02-17T10:12:26;8.73;;;7.30;;
12906;SDS011;6521;50.498;8.474;2023-02-17T10:15:11;10.93;;;7.03;;
12906;SDS011;6521;50.498;8.474;2023-02-17T10:17:55;8.33;;;7.03;;
12906;SDS011;6521;50.498;8.474;2023-02-17T10:20:30;8.23;;;7.13;;
12906;SDS011;6521;50.498;8.474;2023-02-17T10:23:06;10.83;;;7.40;;
12906;SDS011;6521;50.498;8.474;2023-02-17T10:28:49;7.53;;;6.43;;
12906;SDS011;6521;50.498;8.474;2023-02-17T10:39:45;8.33;;;6.10;;
12906;SDS011;6521;50.498;8.474;2023-02-17T10:44:57;7.60;;;5.37;;
12906;SDS011;6521;50.498;8.474;2023-02-17T10:47:31;6.40;;;5.30;;
12906;SDS011;6521;50.498;8.474;2023-02-17T10:50:12;5.73;;;5.10;;
12906;SDS011;6521;50.498;8.474;2023-02-17T10:52:48;6.40;;;5.17;;
12906;SDS011;6521;50.498;8.474;2023-02-17T10:55:25;5.20;;;4.70;;
12906;SDS011;6521;50.498;8.474;2023-02-17T10:58:12;5.73;;;5.20;;
12906;SDS011;6521;50.498;8.474;2023-02-17T11:00:48;6.60;;;5.10;;
12906;SDS011;6521;50.498;8.474;2023-02-17T11:03:24;8.70;;;4.83;;
12906;SDS011;6521;50.498;8.474;2023-02-17T11:05:57;6.37;;;4.97;;
12906;SDS011;6521;50.498;8.474;2023-02-17T11:08:38;15.43;;;5.07;;
12906;SDS011;6521;50.498;8.474;2023-02-17T11:11:21;5.17;;;4.57;;
12906;SDS011;6521;50.498;8.474;2023-02-17T11:16:35;6.17;;;5.27;;
12906;SDS011;6521;50.498;8.474;2023-02-17T11:19:28;5.97;;;4.77;;
12906;SDS011;6521;50.498;8.474;2023-02-17T11:22:04;7.00;;;5.03;;
12906;SDS011;6521;50.498;8.474;2023-02-17T11:24:58;6.60;;;4.47;;
12906;SDS011;6521;50.498;8.474;2023-02-17T11:27:30;5.30;;;3.70;;
12906;SDS011;6521;50.498;8.474;2023-02-17T11:30:06;5.07;;;4.50;;
12906;SDS011;6521;50.498;8.474;2023-02-17T11:32:38;5.40;;;4.23;;
12906;SDS011;6521;50.498;8.474;2023-02-17T11:35:18;5.77;;;4.37;;
12906;SDS011;6521;50.498;8.474;2023-02-17T11:37:59;4.40;;;4.00;;
12906;SDS011;6521;50.498;8.474;2023-02-17T11:40:40;6.00;;;4.37;;
12906;SDS011;6521;50.498;8.474;2023-02-17T11:43:14;4.23;;;3.83;;
12906;SDS011;6521;50.498;8.474;2023-02-17T11:45:53;5.10;;;3.97;;
12906;SDS011;6521;50.498;8.474;2023-02-17T11:59:55;4.47;;;3.30;;
12906;SDS011;6521;50.498;8.474;2023-02-17T12:09:03;3.42;;;3.13;;
12906;SDS011;6521;50.498;8.474;2023-02-17T12:15:23;4.80;;;3.43;;
12906;SDS011;6521;50.498;8.474;2023-02-17T12:18:04;3.50;;;2.85;;
12906;SDS011;6521;50.498;8.474;2023-02-17T12:20:54;3.08;;;2.65;;
12906;SDS011;6521;50.498;8.474;2023-02-17T12:26:44;3.03;;;2.83;;
12906;SDS011;6521;50.498;8.474;2023-02-17T12:32:17;3.38;;;2.90;;
12906;SDS011;6521;50.498;8.474;2023-02-17T12:34:52;4.03;;;2.60;;
12906;SDS011;6521;50.498;8.474;2023-02-17T12:37:32;3.10;;;2.55;;
12906;SDS011;6521;50.498;8.474;2023-02-17T12:40:54;3.38;;;3.08;;
12906;SDS011;6521;50.498;8.474;2023-02-17T12:43:07;2.30;;;2.10;;
12906;SDS011;6521;50.498;8.474;2023-02-17T12:45:48;9.95;;;6.75;;
12906;SDS011;6521;50.498;8.474;2023-02-17T12:48:33;3.63;;;2.70;;
12906;SDS011;6521;50.498;8.474;2023-02-17T12:51:14;2.42;;;2.17;;
12906;SDS011;6521;50.498;8.474;2023-02-17T12:57:12;3.10;;;2.30;;
12906;SDS011;6521;50.498;8.474;2023-02-17T12:59:46;4.33;;;3.27;;
12906;SDS011;6521;50.498;8.474;2023-02-17T13:02:21;8.30;;;5.57;;
12906;SDS011;6521;50.498;8.474;2023-02-17T13:04:54;8.48;;;4.28;;
12906;SDS011;6521;50.498;8.474;2023-02-17T13:10:20;3.15;;;2.35;;
12906;SDS011;6521;50.498;8.474;2023-02-17T13:12:59;1.93;;;1.63;;
12906;SDS011;6521;50.498;8.474;2023-02-17T13:16:00;2.08;;;1.88;;
12906;SDS011;6521;50.498;8.474;2023-02-17T13:18:35;2.42;;;1.95;;
12906;SDS011;6521;50.498;8.474;2023-02-17T13:26:37;4.18;;;2.80;;
12906;SDS011;6521;50.498;8.474;2023-02-17T13:29:20;5.82;;;2.10;;
12906;SDS011;6521;50.498;8.474;2023-02-17T13:32:05;2.17;;;1.92;;
12906;SDS011;6521;50.498;8.474;2023-02-17T13:34:40;2.83;;;1.50;;
12906;SDS011;6521;50.498;8.474;2023-02-17T13:37:37;2.05;;;1.65;;
12906;SDS011;6521;50.498;8.474;2023-02-17T13:45:29;2.00;;;1.50;;
12906;SDS011;6521;50.498;8.474;2023-02-17T13:48:13;1.70;;;1.30;;
12906;SDS011;6521;50.498;8.474;2023-02-17T13:51:24;3.17;;;1.50;;
12906;SDS011;6521;50.498;8.474;2023-02-17T13:53:55;2.33;;;1.90;;
12906;SDS011;6521;50.498;8.474;2023-02-17T13:56:27;1.63;;;1.52;;
12906;SDS011;6521;50.498;8.474;2023-02-17T13:59:06;1.33;;;1.23;;
12906;SDS011;6521;50.498;8.474;2023-02-17T14:01:40;1.30;;;1.20;;
12906;SDS011;6521;50.498;8.474;2023-02-17T14:04:29;1.73;;;1.30;;
12906;SDS011;6521;50.498;8.474;2023-02-17T14:07:02;3.00;;;1.75;;
12906;SDS011;6521;50.498;8.474;2023-02-17T14:09:34;1.65;;;1.55;;
12906;SDS011;6521;50.498;8.474;2023-02-17T14:12:05;1.67;;;1.40;;
12906;SDS011;6521;50.498;8.474;2023-02-17T14:14:46;1.30;;;1.20;;
12906;SDS011;6521;50.498;8.474;2023-02-17T14:17:28;1.73;;;1.35;;
12906;SDS011;6521;50.498;8.474;2023-02-17T14:20:01;3.90;;;1.67;;
12906;SDS011;6521;50.498;8.474;2023-02-17T14:22:33;2.28;;;1.45;;
12906;SDS011;6521;50.498;8.474;2023-02-17T14:25:06;2.78;;;1.20;;
12906;SDS011;6521;50.498;8.474;2023-02-17T14:27:41;4.90;;;1.40;;
12906;SDS011;6521;50.498;8.474;2023-02-17T14:35:51;1.40;;;1.30;;
12906;SDS011;6521;50.498;8.474;2023-02-17T14:38:25;1.20;;;1.10;;
12906;SDS011;6521;50.498;8.474;2023-02-17T14:41:00;2.40;;;1.08;;
12906;SDS011;6521;50.498;8.474;2023-02-17T14:43:30;2.28;;;1.40;;
12906;SDS011;6521;50.498;8.474;2023-02-17T14:46:02;1.30;;;1.20;;
12906;SDS011;6521;50.498;8.474;2023-02-17T14:48:33;4.32;;;1.10;;
12906;SDS011;6521;50.498;8.474;2023-02-17T14:51:05;1.50;;;1.17;;
12906;SDS011;6521;50.498;8.474;2023-02-17T14:53:42;2.60;;;1.13;;
12906;SDS011;6521;50.498;8.474;2023-02-17T14:56:29;1.83;;;1.38;;
12906;SDS011;6521;50.498;8.474;2023-02-17T14:59:04;4.68;;;2.20;;
12906;SDS011;6521;50.498;8.474;2023-02-17T15:01:34;2.05;;;1.40;;
12906;SDS011;6521;50.498;8.474;2023-02-17T15:04:05;2.60;;;1.33;;
12906;SDS011;6521;50.498;8.474;2023-02-17T15:06:40;3.95;;;1.40;;
12906;SDS011;6521;50.498;8.474;2023-02-17T15:09:14;1.45;;;1.33;;
12906;SDS011;6521;50.498;8.474;2023-02-17T15:11:46;1.30;;;1.10;;
12906;SDS011;6521;50.498;8.474;2023-02-17T15:14:19;6.28;;;1.85;;
12906;SDS011;6521;50.498;8.474;2023-02-17T15:16:50;1.60;;;1.50;;
12906;SDS011;6521;50.498;8.474;2023-02-17T15:19:21;2.00;;;1.40;;
12906;SDS011;6521;50.498;8.474;2023-02-17T15:21:54;3.25;;;1.55;;
12906;SDS011;6521;50.498;8.474;2023-02-17T15:24:26;1.60;;;1.40;;
12906;SDS011;6521;50.498;8.474;2023-02-17T15:27:00;2.75;;;1.40;;
12906;SDS011;6521;50.498;8.474;2023-02-17T15:29:32;1.63;;;1.10;;
12906;SDS011;6521;50.498;8.474;2023-02-17T15:32:03;4.05;;;1.20;;
12906;SDS011;6521;50.498;8.474;2023-02-17T15:34:44;1.73;;;1.08;;
12906;SDS011;6521;50.498;8.474;2023-02-17T15:37:15;1.40;;;1.30;;
12906;SDS011;6521;50.498;8.474;2023-02-17T15:39:46;3.20;;;1.20;;
12906;SDS011;6521;50.498;8.474;2023-02-17T15:42:16;2.08;;;1.50;;
12906;SDS011;6521;50.498;8.474;2023-02-17T15:44:48;3.00;;;1.17;;
12906;SDS011;6521;50.498;8.474;2023-02-17T15:47:19;3.95;;;1.20;;
12906;SDS011;6521;50.498;8.474;2023-02-17T15:49:51;1.23;;;1.13;;
12906;SDS011;6521;50.498;8.474;2023-02-17T15:52:22;1.30;;;1.20;;
12906;SDS011;6521;50.498;8.474;2023-02-17T15:54:53;3.10;;;1.77;;
12906;SDS011;6521;50.498;8.474;2023-02-17T15:57:24;4.13;;;1.83;;
12906;SDS011;6521;50.498;8.474;2023-02-17T15:59:55;2.03;;;1.40;;
12906;SDS011;6521;50.498;8.474;2023-02-17T16:02:27;1.77;;;1.60;;
12906;SDS011;6521;50.498;8.474;2023-02-17T16:05:02;1.50;;;1.40;;
12906;SDS011;6521;50.498;8.474;2023-02-17T16:07:32;2.67;;;1.10;;
12906;SDS011;6521;50.498;8.474;2023-02-17T16:10:03;1.23;;;1.17;;
12906;SDS011;6521;50.498;8.474;2023-02-17T16:12:35;1.73;;;1.50;;
12906;SDS011;6521;50.498;8.474;2023-02-17T16:15:10;3.22;;;1.35;;
12906;SDS011;6521;50.498;8.474;2023-02-17T16:17:47;1.52;;;1.35;;
12906;SDS011;6521;50.498;8.474;2023-02-17T16:22:54;4.15;;;1.65;;
12906;SDS011;6521;50.498;8.474;2023-02-17T16:25:26;1.63;;;1.30;;
12906;SDS011;6521;50.498;8.474;2023-02-17T16:27:58;1.67;;;1.57;;
12906;SDS011;6521;50.498;8.474;2023-02-17T16:30:34;1.67;;;1.30;;
12906;SDS011;6521;50.498;8.474;2023-02-17T16:33:05;4.30;;;1.47;;
12906;SDS011;6521;50.498;8.474;2023-02-17T16:35:37;5.28;;;3.63;;
12906;SDS011;6521;50.498;8.474;2023-02-17T16:38:19;12.45;;;6.50;;
12906;SDS011;6521;50.498;8.474;2023-02-17T16:40:52;15.60;;;9.23;;
12906;SDS011;6521;50.498;8.474;2023-02-17T16:43:23;15.43;;;9.38;;
12906;SDS011;6521;50.498;8.474;2023-02-17T16:45:57;20.85;;;10.93;;
12906;SDS011;6521;50.498;8.474;2023-02-17T16:48:31;15.40;;;9.82;;
12906;SDS011;6521;50.498;8.474;2023-02-17T16:51:04;5.05;;;3.63;;
12906;SDS011;6521;50.498;8.474;2023-02-17T16:53:36;2.08;;;1.88;;
12906;SDS011;6521;50.498;8.474;2023-02-17T16:56:15;2.05;;;1.80;;
12906;SDS011;6521;50.498;8.474;2023-02-17T16:58:59;1.85;;;1.60;;
12906;SDS011;6521;50.498;8.474;2023-02-17T17:01:29;3.13;;;1.80;;
12906;SDS011;6521;50.498;8.474;2023-02-17T17:04:01;1.65;;;1.50;;
12906;SDS011;6521;50.498;8.474;2023-02-17T17:06:32;2.05;;;1.85;;
12906;SDS011;6521;50.498;8.474;2023-02-17T17:09:04;3.63;;;2.30;;
12906;SDS011;6521;50.498;8.474;2023-02-17T17:11:35;4.33;;;2.37;;
12906;SDS011;6521;50.498;8.474;2023-02-17T17:14:06;4.30;;;3.83;;
12906;SDS011;6521;50.498;8.474;2023-02-17T17:16:37;10.33;;;7.97;;
12906;SDS011;6521;50.498;8.474;2023-02-17T17:19:11;11.63;;;7.97;;